createdAt,value
2023-04-08T00:00:28.923Z,1011.96
2023-04-08T00:01:29.027Z,1012.01
2023-04-08T00:02:29.095Z,1011.98
2023-04-08T00:03:28.962Z,1012.01
2023-04-08T00:04:29.029Z,1012.01
2023-04-08T00:05:28.868Z,1011.93
2023-04-08T00:06:28.867Z,1011.99
2023-04-08T00:07:28.864Z,1011.96
2023-04-08T00:08:28.848Z,1011.96
2023-04-08T00:09:28.830Z,1011.95
2023-04-08T00:10:28.933Z,1012.03
2023-04-08T00:11:28.809Z,1012.03
2023-04-08T00:12:28.792Z,1012.02
2023-04-08T00:13:28.796Z,1011.99
2023-04-08T00:14:28.777Z,1011.98
2023-04-08T00:15:28.837Z,1011.99
2023-04-08T00:16:28.788Z,1011.98
2023-04-08T00:17:28.788Z,1012.05
2023-04-08T00:18:28.760Z,1012.05
2023-04-08T00:19:28.735Z,1012.04
2023-04-08T00:20:28.795Z,1012.10
2023-04-08T00:21:28.735Z,1012.01
2023-04-08T00:22:28.704Z,1012.02
2023-04-08T00:23:28.701Z,1012.03
2023-04-08T00:24:28.679Z,1012.02
2023-04-08T00:25:28.772Z,1011.99
2023-04-08T00:26:28.727Z,1012.04
2023-04-08T00:27:28.652Z,1012.05
2023-04-08T00:28:28.650Z,1012.02
2023-04-08T00:29:28.635Z,1012.02
2023-04-08T00:30:28.621Z,1012.01
2023-04-08T00:31:28.806Z,1011.98
2023-04-08T00:32:28.652Z,1012.00
2023-04-08T00:33:28.595Z,1012.02
2023-04-08T00:34:28.587Z,1012.00
2023-04-08T00:35:28.581Z,1011.95
2023-04-08T00:36:28.622Z,1011.98
2023-04-08T00:37:28.543Z,1011.99
2023-04-08T00:38:28.558Z,1012.00
2023-04-08T00:39:28.608Z,1012.01
2023-04-08T00:40:28.587Z,1011.94
2023-04-08T00:41:28.478Z,1011.96
2023-04-08T00:42:28.497Z,1011.98
2023-04-08T00:43:28.489Z,1011.95
2023-04-08T00:44:28.557Z,1012.01
2023-04-08T00:45:28.480Z,1012.02
2023-04-08T00:46:28.466Z,1011.94
2023-04-08T00:47:28.460Z,1011.95
2023-04-08T00:48:28.453Z,1011.91
2023-04-08T00:49:28.520Z,1011.94
2023-04-08T00:50:28.420Z,1011.91
2023-04-08T00:51:28.438Z,1011.93
2023-04-08T00:52:28.418Z,1011.93
2023-04-08T00:53:28.454Z,1011.89
2023-04-08T00:54:28.363Z,1011.93
2023-04-08T00:55:28.346Z,1011.96
2023-04-08T00:56:28.343Z,1011.88
2023-04-08T00:57:28.352Z,1011.89
2023-04-08T00:58:28.424Z,1011.90
2023-04-08T00:59:28.373Z,1011.94
2023-04-08T01:00:28.304Z,1011.96
2023-04-08T01:01:28.419Z,1011.95
2023-04-08T01:02:28.518Z,1011.99
2023-04-08T01:03:28.456Z,1012.00
2023-04-08T01:04:28.392Z,1011.97
2023-04-08T01:05:28.261Z,1012.03
2023-04-08T01:06:28.294Z,1011.98
2023-04-08T01:07:28.249Z,1012.04
2023-04-08T01:08:28.273Z,1012.02
2023-04-08T01:09:28.212Z,1012.01
2023-04-08T01:10:28.192Z,1011.97
2023-04-08T01:11:28.257Z,1012.00
2023-04-08T01:12:28.210Z,1011.99
2023-04-08T01:13:28.166Z,1012.02
2023-04-08T01:14:28.220Z,1012.01
2023-04-08T01:15:28.158Z,1012.07
2023-04-08T01:16:28.281Z,1012.06
2023-04-08T01:17:28.236Z,1012.08
2023-04-08T01:18:28.130Z,1012.07
2023-04-08T01:19:28.176Z,1012.07
2023-04-08T01:20:28.100Z,1012.12
2023-04-08T01:21:28.121Z,1012.14
2023-04-08T01:22:28.077Z,1012.10
2023-04-08T01:23:28.070Z,1012.11
2023-04-08T01:24:28.115Z,1012.17
2023-04-08T01:25:28.062Z,1012.13
2023-04-08T01:26:28.129Z,1012.17
2023-04-08T01:27:28.095Z,1012.21
2023-04-08T01:28:28.034Z,1012.16
2023-04-08T01:29:28.012Z,1012.21
2023-04-08T01:30:28.008Z,1012.22
2023-04-08T01:31:28.052Z,1012.16
2023-04-08T01:32:28.042Z,1012.24
2023-04-08T01:33:27.981Z,1012.19
2023-04-08T01:34:27.960Z,1012.19
2023-04-08T01:35:28.046Z,1012.17
2023-04-08T01:36:27.965Z,1012.20
2023-04-08T01:37:27.973Z,1012.18
2023-04-08T01:38:27.996Z,1012.16
2023-04-08T01:39:27.899Z,1012.23
2023-04-08T01:40:27.910Z,1012.16
2023-04-08T01:41:27.900Z,1012.18
2023-04-08T01:42:27.929Z,1012.21
2023-04-08T01:43:27.900Z,1012.14
2023-04-08T01:44:27.907Z,1012.18
2023-04-08T01:45:27.858Z,1012.17
2023-04-08T01:46:27.876Z,1012.13
2023-04-08T01:47:27.859Z,1012.13
2023-04-08T01:48:27.885Z,1012.22
2023-04-08T01:49:27.902Z,1012.16
2023-04-08T01:50:27.778Z,1012.22
2023-04-08T01:51:27.799Z,1012.26
2023-04-08T01:52:27.773Z,1012.24
2023-04-08T01:53:27.756Z,1012.18
2023-04-08T01:54:27.826Z,1012.21
2023-04-08T01:55:27.749Z,1012.21
2023-04-08T01:56:27.733Z,1012.21
2023-04-08T01:57:27.904Z,1012.19
2023-04-08T01:58:27.729Z,1012.24
2023-04-08T01:59:27.760Z,1012.24
2023-04-08T02:00:27.687Z,1012.20
2023-04-08T02:01:27.689Z,1012.23
2023-04-08T02:02:27.809Z,1012.22
2023-04-08T02:03:28.023Z,1012.17
2023-04-08T02:04:27.824Z,1012.20
2023-04-08T02:05:27.644Z,1012.18
2023-04-08T02:06:27.631Z,1012.17
2023-04-08T02:07:27.615Z,1012.22
2023-04-08T02:08:27.613Z,1012.23
2023-04-08T02:09:27.653Z,1012.19
2023-04-08T02:10:27.578Z,1012.21
2023-04-08T02:11:27.605Z,1012.20
2023-04-08T02:12:27.561Z,1012.16
2023-04-08T02:13:27.624Z,1012.18
2023-04-08T02:14:27.564Z,1012.16
2023-04-08T02:15:27.596Z,1012.13
2023-04-08T02:16:27.552Z,1012.17
2023-04-08T02:17:27.581Z,1012.23
2023-04-08T02:18:27.560Z,1012.22
2023-04-08T02:19:27.513Z,1012.23
2023-04-08T02:20:27.550Z,1012.21
2023-04-08T02:21:27.476Z,1012.26
2023-04-08T02:22:27.464Z,1012.27
2023-04-08T02:23:27.451Z,1012.23
2023-04-08T02:24:27.433Z,1012.24
2023-04-08T02:25:27.494Z,1012.29
2023-04-08T02:26:27.416Z,1012.33
2023-04-08T02:27:27.438Z,1012.31
2023-04-08T02:28:27.476Z,1012.30
2023-04-08T02:29:27.373Z,1012.36
2023-04-08T02:30:27.445Z,1012.33
2023-04-08T02:31:27.380Z,1012.35
2023-04-08T02:32:27.428Z,1012.31
2023-04-08T02:33:27.412Z,1012.38
2023-04-08T02:34:27.351Z,1012.33
2023-04-08T02:35:27.411Z,1012.34
2023-04-08T02:36:27.311Z,1012.34
2023-04-08T02:37:27.333Z,1012.33
2023-04-08T02:38:27.289Z,1012.38
2023-04-08T02:39:27.279Z,1012.43
2023-04-08T02:40:27.335Z,1012.38
2023-04-08T02:41:27.250Z,1012.38
2023-04-08T02:42:27.254Z,1012.43
2023-04-08T02:43:27.279Z,1012.47
2023-04-08T02:44:27.264Z,1012.40
2023-04-08T02:45:27.237Z,1012.43
2023-04-08T02:46:27.291Z,1012.44
2023-04-08T02:47:27.231Z,1012.40
2023-04-08T02:48:27.190Z,1012.43
2023-04-08T02:49:27.194Z,1012.40
2023-04-08T02:50:27.174Z,1012.45
2023-04-08T02:51:27.210Z,1012.41
2023-04-08T02:52:27.144Z,1012.42
2023-04-08T02:53:27.158Z,1012.43
2023-04-08T02:54:27.118Z,1012.41
2023-04-08T02:55:27.183Z,1012.45
2023-04-08T02:56:27.157Z,1012.47
2023-04-08T02:57:27.107Z,1012.47
2023-04-08T02:58:27.080Z,1012.51
2023-04-08T02:59:27.075Z,1012.47
2023-04-08T03:00:27.120Z,1012.53
2023-04-08T03:01:27.208Z,1012.46
2023-04-08T03:02:27.112Z,1012.50
2023-04-08T03:03:27.142Z,1012.50
2023-04-08T03:04:27.024Z,1012.51
2023-04-08T03:05:27.067Z,1012.56
2023-04-08T03:06:27.034Z,1012.53
2023-04-08T03:07:26.994Z,1012.49
2023-04-08T03:08:27.047Z,1012.47
2023-04-08T03:09:26.993Z,1012.47
2023-04-08T03:10:27.020Z,1012.49
2023-04-08T03:11:26.951Z,1012.53
2023-04-08T03:12:26.942Z,1012.49
2023-04-08T03:13:26.987Z,1012.58
2023-04-08T03:14:26.916Z,1012.53
2023-04-08T03:15:26.958Z,1012.54
2023-04-08T03:16:26.937Z,1012.53
2023-04-08T03:17:26.893Z,1012.58
2023-04-08T03:18:26.938Z,1012.56
2023-04-08T03:19:26.866Z,1012.55
2023-04-08T03:20:26.874Z,1012.49
2023-04-08T03:21:26.844Z,1012.49
2023-04-08T03:22:26.820Z,1012.50
2023-04-08T03:23:26.877Z,1012.53
2023-04-08T03:24:26.816Z,1012.53
2023-04-08T03:25:26.884Z,1012.52
2023-04-08T03:26:26.787Z,1012.52
2023-04-08T03:27:26.777Z,1012.53
2023-04-08T03:28:26.761Z,1012.57
2023-04-08T03:29:26.756Z,1012.55
2023-04-08T03:30:26.755Z,1012.55
2023-04-08T03:31:26.828Z,1012.58
2023-04-08T03:32:26.746Z,1012.53
2023-04-08T03:33:26.715Z,1012.55
2023-04-08T03:34:26.699Z,1012.53
2023-04-08T03:35:26.777Z,1012.54
2023-04-08T03:36:26.709Z,1012.52
2023-04-08T03:37:26.817Z,1012.48
2023-04-08T03:38:26.665Z,1012.48
2023-04-08T03:39:26.650Z,1012.55
2023-04-08T03:40:26.632Z,1012.54
2023-04-08T03:41:26.687Z,1012.48
2023-04-08T03:42:26.700Z,1012.53
2023-04-08T03:43:26.646Z,1012.57
2023-04-08T03:44:26.597Z,1012.58
2023-04-08T03:45:26.580Z,1012.54
2023-04-08T03:46:26.665Z,1012.53
2023-04-08T03:47:26.664Z,1012.54
2023-04-08T03:48:26.556Z,1012.53
2023-04-08T03:49:26.664Z,1012.51
2023-04-08T03:50:26.598Z,1012.53
2023-04-08T03:51:26.512Z,1012.55
2023-04-08T03:52:26.519Z,1012.60
2023-04-08T03:53:26.576Z,1012.55
2023-04-08T03:54:26.499Z,1012.53
2023-04-08T03:55:26.487Z,1012.56
2023-04-08T03:56:26.529Z,1012.55
2023-04-08T03:57:26.471Z,1012.50
2023-04-08T03:58:26.967Z,1012.56
2023-04-08T03:59:26.453Z,1012.54
2023-04-08T04:00:26.434Z,1012.55
2023-04-08T04:01:26.425Z,1012.57
2023-04-08T04:02:26.566Z,1012.55
2023-04-08T04:03:26.626Z,1012.55
2023-04-08T04:04:26.475Z,1012.57
2023-04-08T04:05:26.389Z,1012.55
2023-04-08T04:06:26.438Z,1012.53
2023-04-08T04:07:26.340Z,1012.53
2023-04-08T04:08:26.343Z,1012.55
2023-04-08T04:09:26.327Z,1012.57
2023-04-08T04:10:26.332Z,1012.52
2023-04-08T04:11:26.416Z,1012.55
2023-04-08T04:12:26.329Z,1012.54
2023-04-08T04:13:26.303Z,1012.58
2023-04-08T04:14:26.362Z,1012.49
2023-04-08T04:15:26.294Z,1012.56
2023-04-08T04:16:26.348Z,1012.55
2023-04-08T04:17:26.284Z,1012.57
2023-04-08T04:18:26.250Z,1012.55
2023-04-08T04:19:26.227Z,1012.56
2023-04-08T04:20:26.241Z,1012.61
2023-04-08T04:21:26.276Z,1012.62
2023-04-08T04:22:26.185Z,1012.67
2023-04-08T04:23:26.210Z,1012.67
2023-04-08T04:24:26.240Z,1012.64
2023-04-08T04:25:26.166Z,1012.67
2023-04-08T04:26:26.155Z,1012.65
2023-04-08T04:27:26.153Z,1012.71
2023-04-08T04:28:26.128Z,1012.69
2023-04-08T04:29:26.232Z,1012.80
2023-04-08T04:30:26.130Z,1012.76
2023-04-08T04:31:26.294Z,1012.78
2023-04-08T04:32:26.180Z,1012.82
2023-04-08T04:33:26.093Z,1012.82
2023-04-08T04:34:26.081Z,1012.72
2023-04-08T04:35:26.108Z,1012.74
2023-04-08T04:36:26.044Z,1012.74
2023-04-08T04:37:26.099Z,1012.78
2023-04-08T04:38:26.111Z,1012.74
2023-04-08T04:39:26.050Z,1012.75
2023-04-08T04:40:26.024Z,1012.79
2023-04-08T04:41:26.010Z,1012.83
2023-04-08T04:42:26.091Z,1012.80
2023-04-08T04:43:25.968Z,1012.85
2023-04-08T04:44:25.987Z,1012.83
2023-04-08T04:45:26.040Z,1012.86
2023-04-08T04:46:25.980Z,1012.91
2023-04-08T04:47:25.996Z,1012.84
2023-04-08T04:48:25.939Z,1012.88
2023-04-08T04:49:25.927Z,1012.90
2023-04-08T04:50:25.990Z,1012.89
2023-04-08T04:51:25.875Z,1012.92
2023-04-08T04:52:25.891Z,1012.88
2023-04-08T04:53:25.874Z,1012.94
2023-04-08T04:54:25.871Z,1012.92
2023-04-08T04:55:25.915Z,1012.94
2023-04-08T04:56:25.841Z,1012.96
2023-04-08T04:57:25.831Z,1012.93
2023-04-08T04:58:25.825Z,1012.96
2023-04-08T04:59:25.810Z,1012.98
2023-04-08T05:00:25.872Z,1013.03
2023-04-08T05:01:25.875Z,1012.98
2023-04-08T05:02:26.018Z,1013.06
2023-04-08T05:03:25.961Z,1013.04
2023-04-08T05:04:25.753Z,1013.05
2023-04-08T05:05:25.860Z,1013.04
2023-04-08T05:06:25.737Z,1013.04
2023-04-08T05:07:25.718Z,1013.01
2023-04-08T05:08:27.804Z,1013.11
2023-04-08T05:09:25.743Z,1013.10
2023-04-08T05:10:25.698Z,1013.00
2023-04-08T05:11:25.759Z,1013.07
2023-04-08T05:12:25.669Z,1013.08
2023-04-08T05:13:25.696Z,1013.10
2023-04-08T05:14:25.645Z,1013.07
2023-04-08T05:15:25.664Z,1013.11
2023-04-08T05:16:25.754Z,1013.09
2023-04-08T05:17:25.650Z,1013.07
2023-04-08T05:18:25.637Z,1013.07
2023-04-08T05:19:25.610Z,1013.04
2023-04-08T05:20:25.599Z,1013.06
2023-04-08T05:21:25.673Z,1013.09
2023-04-08T05:22:25.578Z,1013.09
2023-04-08T05:23:25.580Z,1013.09
2023-04-08T05:24:25.585Z,1013.04
2023-04-08T05:25:25.551Z,1013.04
2023-04-08T05:26:25.598Z,1013.07
2023-04-08T05:27:25.569Z,1013.00
2023-04-08T05:28:26.565Z,1012.99
2023-04-08T05:29:25.508Z,1013.04
2023-04-08T05:30:25.485Z,1013.02
2023-04-08T05:31:25.536Z,1013.02
2023-04-08T05:32:25.564Z,1013.03
2023-04-08T05:33:25.473Z,1013.10
2023-04-08T05:34:25.459Z,1013.08
2023-04-08T05:35:25.476Z,1013.12
2023-04-08T05:36:25.419Z,1013.13
2023-04-08T05:37:25.493Z,1013.12
2023-04-08T05:38:25.566Z,1013.08
2023-04-08T05:39:25.401Z,1013.13
2023-04-08T05:40:25.387Z,1013.11
2023-04-08T05:41:25.433Z,1013.12
2023-04-08T05:42:25.419Z,1013.17
2023-04-08T05:43:25.369Z,1013.17
2023-04-08T05:44:25.357Z,1013.16
2023-04-08T05:45:25.354Z,1013.25
2023-04-08T05:46:25.353Z,1013.29
2023-04-08T05:47:25.498Z,1013.34
2023-04-08T05:48:25.323Z,1013.36
2023-04-08T05:49:25.364Z,1013.38
2023-04-08T05:50:25.284Z,1013.40
2023-04-08T05:51:25.333Z,1013.41
2023-04-08T05:52:46.263Z,1013.43
2023-04-08T05:53:25.300Z,1013.44
2023-04-08T05:54:25.257Z,1013.35
2023-04-08T05:55:25.225Z,1013.40
2023-04-08T05:56:25.290Z,1013.42
2023-04-08T05:57:25.212Z,1013.41
2023-04-08T05:58:25.212Z,1013.42
2023-04-08T05:59:25.186Z,1013.43
2023-04-08T06:00:25.167Z,1013.47
2023-04-08T06:01:25.212Z,1013.39
2023-04-08T06:02:25.315Z,1013.45
2023-04-08T06:03:25.337Z,1013.41
2023-04-08T06:04:25.478Z,1013.46
2023-04-08T06:05:25.142Z,1013.44
2023-04-08T06:06:25.105Z,1013.49
2023-04-08T06:07:25.162Z,1013.52
2023-04-08T06:08:25.156Z,1013.47
2023-04-08T06:09:25.092Z,1013.42
2023-04-08T06:10:25.069Z,1013.45
2023-04-08T06:11:25.124Z,1013.42
2023-04-08T06:12:25.041Z,1013.51
2023-04-08T06:13:25.109Z,1013.47
2023-04-08T06:14:25.013Z,1013.46
2023-04-08T06:15:25.154Z,1013.49
2023-04-08T06:16:25.096Z,1013.47
2023-04-08T06:17:25.045Z,1013.53
2023-04-08T06:18:25.041Z,1013.54
2023-04-08T06:19:24.977Z,1013.53
2023-04-08T06:20:24.959Z,1013.51
2023-04-08T06:21:25.003Z,1013.51
2023-04-08T06:22:24.948Z,1013.53
2023-04-08T06:23:24.930Z,1013.53
2023-04-08T06:24:24.930Z,1013.48
2023-04-08T06:25:24.924Z,1013.61
2023-04-08T06:26:24.957Z,1013.56
2023-04-08T06:27:24.896Z,1013.58
2023-04-08T06:28:24.885Z,1013.60
2023-04-08T06:29:24.944Z,1013.57
2023-04-08T06:30:24.852Z,1013.63
2023-04-08T06:31:24.883Z,1013.61
2023-04-08T06:32:24.895Z,1013.77
2023-04-08T06:33:24.813Z,1013.80
2023-04-08T06:34:24.803Z,1013.77
2023-04-08T06:35:24.847Z,1013.83
2023-04-08T06:36:24.789Z,1013.83
2023-04-08T06:37:24.915Z,1013.83
2023-04-08T06:38:24.840Z,1013.84
2023-04-08T06:39:24.753Z,1013.84
2023-04-08T06:40:24.757Z,1013.86
2023-04-08T06:41:24.764Z,1013.88
2023-04-08T06:42:24.727Z,1013.84
2023-04-08T06:43:24.797Z,1013.89
2023-04-08T06:44:24.715Z,1013.89
2023-04-08T06:45:24.744Z,1013.87
2023-04-08T06:46:24.771Z,1013.99
2023-04-08T06:47:24.766Z,1013.96
2023-04-08T06:48:24.659Z,1013.95
2023-04-08T06:49:24.667Z,1013.95
2023-04-08T06:50:24.653Z,1013.94
2023-04-08T06:51:24.647Z,1013.89
2023-04-08T06:52:24.628Z,1013.97
2023-04-08T06:53:24.920Z,1014.01
2023-04-08T06:54:24.602Z,1013.99
2023-04-08T06:55:24.625Z,1014.02
2023-04-08T06:56:24.589Z,1014.05
2023-04-08T06:57:24.567Z,1014.03
2023-04-08T06:58:24.613Z,1014.01
2023-04-08T06:59:24.661Z,1014.04
2023-04-08T07:00:24.541Z,1014.12
2023-04-08T07:01:24.560Z,1014.09
2023-04-08T07:02:24.677Z,1014.14
2023-04-08T07:03:24.644Z,1014.06
2023-04-08T07:04:24.566Z,1014.13
2023-04-08T07:05:24.493Z,1014.10
2023-04-08T07:06:24.479Z,1014.09
2023-04-08T07:07:24.466Z,1014.16
2023-04-08T07:08:24.528Z,1014.18
2023-04-08T07:09:24.469Z,1014.18
2023-04-08T07:10:24.432Z,1014.17
2023-04-08T07:11:24.435Z,1014.18
2023-04-08T07:12:24.392Z,1014.19
2023-04-08T07:13:24.480Z,1014.22
2023-04-08T07:14:24.379Z,1014.21
2023-04-08T07:15:24.383Z,1014.23
2023-04-08T07:16:24.483Z,1014.20
2023-04-08T07:17:24.378Z,1014.19
2023-04-08T07:18:24.420Z,1014.25
2023-04-08T07:19:24.558Z,1014.23
2023-04-08T07:20:24.321Z,1014.28
2023-04-08T07:21:24.324Z,1014.25
2023-04-08T07:22:24.363Z,1014.29
2023-04-08T07:23:24.381Z,1014.24
2023-04-08T07:24:24.297Z,1014.29
2023-04-08T07:25:24.299Z,1014.33
2023-04-08T07:26:24.270Z,1014.29
2023-04-08T07:27:24.325Z,1014.26
2023-04-08T07:28:24.308Z,1014.20
2023-04-08T07:29:24.232Z,1014.20
2023-04-08T07:30:24.360Z,1014.24
2023-04-08T07:31:24.313Z,1014.27
2023-04-08T07:32:24.300Z,1014.31
2023-04-08T07:33:24.195Z,1014.28
2023-04-08T07:34:24.186Z,1014.23
2023-04-08T07:35:24.350Z,1014.27
2023-04-08T07:36:24.191Z,1014.27
2023-04-08T07:37:24.202Z,1014.24
2023-04-08T07:38:24.230Z,1014.26
2023-04-08T07:39:24.205Z,1014.26
2023-04-08T07:40:24.141Z,1014.27
2023-04-08T07:41:24.141Z,1014.23
2023-04-08T07:42:24.120Z,1014.22
2023-04-08T07:43:24.112Z,1014.22
2023-04-08T07:44:24.169Z,1014.28
2023-04-08T07:45:24.080Z,1014.27
2023-04-08T07:46:24.114Z,1014.26
2023-04-08T07:47:24.077Z,1014.25
2023-04-08T07:48:24.051Z,1014.26
2023-04-08T07:49:24.093Z,1014.23
2023-04-08T07:50:24.120Z,1014.27
2023-04-08T07:51:24.016Z,1014.29
2023-04-08T07:52:24.017Z,1014.30
2023-04-08T07:53:25.020Z,1014.31
2023-04-08T07:54:24.042Z,1014.34
2023-04-08T07:55:23.975Z,1014.35
2023-04-08T07:56:23.998Z,1014.42
2023-04-08T07:57:23.960Z,1014.42
2023-04-08T07:58:23.943Z,1014.45
2023-04-08T07:59:24.033Z,1014.37
2023-04-08T08:00:23.909Z,1014.42
2023-04-08T08:01:23.898Z,1014.45
2023-04-08T08:02:23.953Z,1014.41
2023-04-08T08:03:23.941Z,1014.40
2023-04-08T08:04:24.082Z,1014.43
2023-04-08T08:05:23.994Z,1014.43
2023-04-08T08:06:23.849Z,1014.46
2023-04-08T08:07:23.852Z,1014.46
2023-04-08T08:08:23.832Z,1014.44
2023-04-08T08:09:23.886Z,1014.41
2023-04-08T08:10:23.811Z,1014.48
2023-04-08T08:11:23.821Z,1014.41
2023-04-08T08:12:23.793Z,1014.39
2023-04-08T08:13:23.808Z,1014.46
2023-04-08T08:14:23.836Z,1014.51
2023-04-08T08:15:23.757Z,1014.51
2023-04-08T08:16:23.811Z,1014.54
2023-04-08T08:17:24.674Z,1014.46
2023-04-08T08:18:23.740Z,1014.50
2023-04-08T08:19:23.720Z,1014.49
2023-04-08T08:20:23.722Z,1014.53
2023-04-08T08:21:23.704Z,1014.53
2023-04-08T08:22:23.756Z,1014.57
2023-04-08T08:23:23.717Z,1014.56
2023-04-08T08:24:23.669Z,1014.58
2023-04-08T08:25:25.800Z,1014.61
2023-04-08T08:26:23.650Z,1014.59
2023-04-08T08:27:23.636Z,1014.57
2023-04-08T08:28:23.683Z,1014.61
2023-04-08T08:29:23.633Z,1014.59
2023-04-08T08:30:23.637Z,1014.57
2023-04-08T08:31:23.690Z,1014.58
2023-04-08T08:32:23.619Z,1014.60
2023-04-08T08:33:23.634Z,1014.64
2023-04-08T08:34:23.563Z,1014.60
2023-04-08T08:35:23.553Z,1014.71
2023-04-08T08:36:23.545Z,1014.67
2023-04-08T08:37:23.533Z,1014.65
2023-04-08T08:38:23.525Z,1014.64
2023-04-08T08:39:23.576Z,1014.66
2023-04-08T08:40:23.605Z,1014.74
2023-04-08T08:41:23.491Z,1014.74
2023-04-08T08:42:23.469Z,1014.79
2023-04-08T08:43:23.479Z,1014.71
2023-04-08T08:44:23.534Z,1014.73
2023-04-08T08:45:23.521Z,1014.72
2023-04-08T08:46:23.448Z,1014.75
2023-04-08T08:47:23.462Z,1014.75
2023-04-08T08:48:23.444Z,1014.75
2023-04-08T08:49:23.483Z,1014.73
2023-04-08T08:50:23.392Z,1014.75
2023-04-08T08:51:23.404Z,1014.76
2023-04-08T08:52:23.391Z,1014.75
2023-04-08T08:53:23.396Z,1014.78
2023-04-08T08:54:23.427Z,1014.80
2023-04-08T08:56:23.331Z,1014.77
2023-04-08T08:57:23.324Z,1014.86
2023-04-08T08:58:23.319Z,1014.91
2023-04-08T08:59:23.311Z,1014.86
2023-04-08T09:00:23.296Z,1014.88
2023-04-08T09:01:23.385Z,1014.86
2023-04-08T09:02:23.397Z,1014.90
2023-04-08T09:03:23.624Z,1014.94
2023-04-08T09:04:23.449Z,1014.92
2023-04-08T09:05:23.371Z,1014.93
2023-04-08T09:06:23.245Z,1014.86
2023-04-08T09:07:23.241Z,1014.88
2023-04-08T09:08:23.282Z,1014.88
2023-04-08T09:09:23.194Z,1014.87
2023-04-08T09:10:23.183Z,1014.84
2023-04-08T09:11:23.184Z,1014.84
2023-04-08T09:12:23.175Z,1014.81
2023-04-08T09:13:23.212Z,1014.81
2023-04-08T09:14:23.162Z,1014.83
2023-04-08T09:15:23.128Z,1014.84
2023-04-08T09:16:23.186Z,1014.87
2023-04-08T09:17:23.123Z,1014.86
2023-04-08T09:18:23.244Z,1014.91
2023-04-08T09:19:23.104Z,1014.99
2023-04-08T09:20:23.090Z,1014.94
2023-04-08T09:21:23.083Z,1014.87
2023-04-08T09:22:23.087Z,1014.94
2023-04-08T09:23:23.059Z,1014.92
2023-04-08T09:24:23.104Z,1014.95
2023-04-08T09:25:23.038Z,1014.95
2023-04-08T09:26:23.112Z,1014.96
2023-04-08T09:27:23.023Z,1014.97
2023-04-08T09:28:23.011Z,1014.99
2023-04-08T09:29:26.310Z,1014.97
2023-04-08T09:30:22.984Z,1014.93
2023-04-08T09:31:23.276Z,1014.96
2023-04-08T09:32:22.960Z,1014.96
2023-04-08T09:33:22.966Z,1014.96
2023-04-08T09:34:22.988Z,1014.96
2023-04-08T09:35:23.099Z,1014.92
2023-04-08T09:36:22.930Z,1014.89
2023-04-08T09:37:22.900Z,1014.95
2023-04-08T09:38:22.957Z,1014.94
2023-04-08T09:39:22.992Z,1014.92
2023-04-08T09:40:22.895Z,1014.90
2023-04-08T09:41:22.911Z,1014.91
2023-04-08T09:42:22.863Z,1014.89
2023-04-08T09:43:22.880Z,1014.88
2023-04-08T09:44:22.891Z,1014.86
2023-04-08T09:45:22.925Z,1014.87
2023-04-08T09:46:22.897Z,1014.91
2023-04-08T09:47:22.837Z,1014.86
2023-04-08T09:48:22.915Z,1014.88
2023-04-08T09:49:22.864Z,1014.96
2023-04-08T09:50:22.774Z,1014.90
2023-04-08T09:51:22.860Z,1014.86
2023-04-08T09:52:22.745Z,1014.93
2023-04-08T09:53:23.384Z,1014.91
2023-04-08T09:54:22.905Z,1014.93
2023-04-08T09:55:22.757Z,1014.89
2023-04-08T09:56:22.718Z,1014.95
2023-04-08T09:57:22.702Z,1014.91
2023-04-08T09:58:22.767Z,1014.97
2023-04-08T09:59:22.759Z,1014.95
2023-04-08T10:00:22.680Z,1014.99
2023-04-08T10:01:23.653Z,1015.04
2023-04-08T10:02:22.664Z,1014.97
2023-04-08T10:03:22.692Z,1014.98
2023-04-08T10:04:22.949Z,1014.98
2023-04-08T10:05:22.638Z,1014.99
2023-04-08T10:06:22.670Z,1015.03
2023-04-08T10:07:22.643Z,1014.95
2023-04-08T10:08:22.580Z,1014.99
2023-04-08T10:09:22.654Z,1015.01
2023-04-08T10:10:22.577Z,1014.95
2023-04-08T10:11:22.560Z,1014.93
2023-04-08T10:12:22.555Z,1014.95
2023-04-08T10:13:22.548Z,1014.93
2023-04-08T10:14:22.604Z,1014.96
2023-04-08T10:15:22.735Z,1014.95
2023-04-08T10:16:22.622Z,1015.00
2023-04-08T10:17:22.499Z,1015.02
2023-04-08T10:18:22.495Z,1014.99
2023-04-08T10:19:22.712Z,1014.96
2023-04-08T10:20:22.513Z,1015.00
2023-04-08T10:21:22.483Z,1014.98
2023-04-08T10:22:22.439Z,1015.01
2023-04-08T10:23:22.735Z,1014.99
2023-04-08T10:24:22.468Z,1014.98
2023-04-08T10:25:22.674Z,1014.97
2023-04-08T10:26:22.766Z,1014.97
2023-04-08T10:27:22.372Z,1014.97
2023-04-08T10:28:22.382Z,1014.92
2023-04-08T10:29:22.354Z,1014.97
2023-04-08T10:30:22.413Z,1015.04
2023-04-08T10:31:22.441Z,1014.98
2023-04-08T10:32:22.323Z,1015.00
2023-04-08T10:33:22.324Z,1015.04
2023-04-08T10:34:22.355Z,1015.08
2023-04-08T10:35:22.373Z,1015.05
2023-04-08T10:36:22.285Z,1015.09
2023-04-08T10:37:22.292Z,1015.06
2023-04-08T10:38:22.268Z,1015.04
2023-04-08T10:39:22.261Z,1015.08
2023-04-08T10:40:22.314Z,1015.03
2023-04-08T10:41:22.259Z,1015.07
2023-04-08T10:42:22.219Z,1015.08
2023-04-08T10:43:22.221Z,1015.08
2023-04-08T10:44:22.204Z,1015.06
2023-04-08T10:45:22.252Z,1015.12
2023-04-08T10:46:22.179Z,1015.07
2023-04-08T10:47:22.210Z,1015.09
2023-04-08T10:48:22.182Z,1015.10
2023-04-08T10:49:22.199Z,1015.15
2023-04-08T10:50:22.238Z,1015.11
2023-04-08T10:51:22.131Z,1015.15
2023-04-08T10:52:22.788Z,1015.12
2023-04-08T10:53:22.115Z,1015.12
2023-04-08T10:54:22.102Z,1015.14
2023-04-08T10:55:22.082Z,1015.14
2023-04-08T10:56:22.130Z,1015.10
2023-04-08T10:57:22.157Z,1015.14
2023-04-08T10:58:22.051Z,1015.13
2023-04-08T10:59:22.057Z,1015.16
2023-04-08T11:00:22.116Z,1015.23
2023-04-08T11:01:22.287Z,1015.16
2023-04-08T11:02:22.160Z,1015.15
2023-04-08T11:03:22.129Z,1015.21
2023-04-08T11:04:22.150Z,1015.22
2023-04-08T11:05:22.137Z,1015.14
2023-04-08T11:06:22.078Z,1015.20
2023-04-08T11:07:21.980Z,1015.22
2023-04-08T11:08:21.943Z,1015.22
2023-04-08T11:09:22.023Z,1015.20
2023-04-08T11:10:21.953Z,1015.19
2023-04-08T11:11:21.991Z,1015.19
2023-04-08T11:12:21.910Z,1015.15
2023-04-08T11:13:21.887Z,1015.19
2023-04-08T11:14:22.890Z,1015.18
2023-04-08T11:15:21.937Z,1015.16
2023-04-08T11:16:22.078Z,1015.15
2023-04-08T11:17:21.861Z,1015.19
2023-04-08T11:18:21.853Z,1015.21
2023-04-08T11:19:21.853Z,1015.20
2023-04-08T11:20:21.868Z,1015.19
2023-04-08T11:21:22.427Z,1015.22
2023-04-08T11:22:22.043Z,1015.23
2023-04-08T11:23:21.843Z,1015.20
2023-04-08T11:24:21.901Z,1015.21
2023-04-08T11:25:21.784Z,1015.22
2023-04-08T11:26:21.775Z,1015.19
2023-04-08T11:27:21.753Z,1015.21
2023-04-08T11:28:22.611Z,1015.19
2023-04-08T11:29:22.071Z,1015.18
2023-04-08T11:30:21.708Z,1015.17
2023-04-08T11:31:24.312Z,1015.19
2023-04-08T11:32:22.503Z,1015.18
2023-04-08T11:33:21.906Z,1015.26
2023-04-08T11:34:21.679Z,1015.23
2023-04-08T11:35:21.664Z,1015.32
2023-04-08T11:36:21.687Z,1015.28
2023-04-08T11:37:21.649Z,1015.24
2023-04-08T11:38:21.702Z,1015.24
2023-04-08T11:39:22.056Z,1015.15
2023-04-08T11:40:21.608Z,1015.15
2023-04-08T11:41:21.617Z,1015.14
2023-04-08T11:42:21.631Z,1015.18
2023-04-08T11:43:21.649Z,1015.17
2023-04-08T11:44:21.577Z,1015.12
2023-04-08T11:45:21.574Z,1015.15
2023-04-08T11:46:21.593Z,1015.21
2023-04-08T11:47:21.554Z,1015.12
2023-04-08T11:48:21.568Z,1015.22
2023-04-08T11:49:21.527Z,1015.20
2023-04-08T11:50:21.495Z,1015.24
2023-04-08T11:51:21.521Z,1015.21
2023-04-08T11:52:21.558Z,1015.16
2023-04-08T11:53:21.558Z,1015.19
2023-04-08T11:54:21.468Z,1015.19
2023-04-08T11:55:21.470Z,1015.17
2023-04-08T11:56:21.478Z,1015.16
2023-04-08T11:57:21.445Z,1015.17
2023-04-08T11:58:21.491Z,1015.15
2023-04-08T11:59:21.399Z,1015.12
2023-04-08T12:00:21.411Z,1015.10
2023-04-08T12:01:21.378Z,1015.08
2023-04-08T12:02:21.501Z,1015.08
2023-04-08T12:03:21.518Z,1015.10
2023-04-08T12:04:21.499Z,1015.08
2023-04-08T12:05:21.374Z,1015.11
2023-04-08T12:06:21.334Z,1015.08